Time;durP1;ratioP1;P1;durP2;ratioP2;P2;SDS_P1;SDS_P2;PMS_P1;PMS_P2;Temp;Humidity;BMP_temperature;BMP_pressure;BME280_temperature;BME280_humidity;BME280_pressure;Samples;Min_cycle;Max_cycle;Signal;HPM_P1;HPM_P2
2024/01/19 00:00:48;;;;;;;0.73;0.68;;;;;;;3.16;70.00;91474.72;2044451;70;20138;-81
2024/01/19 00:03:13;;;;;;;0.70;0.70;;;;;;;3.69;70.34;91490.09;2044777;70;20597;-83
2024/01/19 00:05:39;;;;;;;0.70;0.70;;;;;;;3.74;71.00;91497.38;2045028;70;20523;-82
2024/01/19 00:08:06;;;;;;;0.50;0.50;;;;;;;3.91;70.03;91509.59;2044804;70;20151;-83
2024/01/19 00:10:36;;;;;;;0.60;0.60;;;;;;;3.86;69.10;91519.75;2044213;70;20155;-81
2024/01/19 00:13:02;;;;;;;0.60;0.60;;;;;;;3.50;70.30;91518.78;2041616;70;20150;-81
2024/01/19 00:15:28;;;;;;;0.68;0.68;;;;;;;3.44;69.13;91518.38;2044615;70;20158;-82
2024/01/19 00:17:53;;;;;;;0.70;0.70;;;;;;;3.40;70.30;91525.72;2044582;70;20139;-81
2024/01/19 00:20:19;;;;;;;0.60;0.60;;;;;;;3.52;69.79;91537.66;2044893;70;20603;-82
2024/01/19 00:22:45;;;;;;;1.23;0.70;;;;;;;3.55;70.35;91547.59;2044882;70;20163;-81
2024/01/19 00:25:11;;;;;;;0.70;0.70;;;;;;;3.41;70.37;91552.22;2044744;70;20143;-81
2024/01/19 00:27:37;;;;;;;0.90;0.80;;;;;;;3.38;70.85;91570.81;2043804;70;20683;-78
2024/01/19 00:30:04;;;;;;;0.60;0.60;;;;;;;2.78;70.83;91565.28;2043970;70;20146;-80
2024/01/19 00:32:30;;;;;;;0.73;0.70;;;;;;;3.55;71.18;91581.72;2044334;70;20170;-80
2024/01/19 00:34:55;;;;;;;0.85;0.60;;;;;;;3.01;70.57;91573.84;2044459;70;20142;-81
2024/01/19 00:37:21;;;;;;;0.70;0.70;;;;;;;2.81;73.43;91597.47;2044053;70;20516;-81
2024/01/19 00:39:48;;;;;;;0.90;0.75;;;;;;;2.55;75.16;91588.69;2044505;70;20159;-81
2024/01/19 00:42:14;;;;;;;1.42;1.00;;;;;;;3.00;75.27;91607.81;2044552;70;20183;-81
2024/01/19 00:44:40;;;;;;;0.70;0.70;;;;;;;2.99;75.27;91589.69;2044458;70;20177;-81
2024/01/19 00:47:05;;;;;;;1.08;0.98;;;;;;;2.50;75.45;91600.13;2044531;70;20159;-80
2024/01/19 00:49:31;;;;;;;1.10;1.00;;;;;;;2.94;75.57;91607.41;2044071;70;20263;-80
2024/01/19 00:51:56;;;;;;;1.10;1.00;;;;;;;3.18;75.88;91611.16;2043920;70;20167;-81
2024/01/19 00:54:22;;;;;;;0.98;0.80;;;;;;;2.79;75.71;91605.63;2044506;70;20151;-82
2024/01/19 00:56:48;;;;;;;1.15;1.00;;;;;;;2.89;75.07;91620.28;2044808;70;20178;-83
2024/01/19 00:59:14;;;;;;;1.05;0.80;;;;;;;2.70;75.23;91620.28;2044764;70;20151;-81
2024/01/19 01:01:40;;;;;;;0.70;0.70;;;;;;;2.55;74.36;91624.81;2047050;70;20602;-82
2024/01/19 01:04:05;;;;;;;0.82;0.80;;;;;;;1.97;75.56;91626.81;2047220;70;20245;-81
2024/01/19 01:06:31;;;;;;;0.73;0.73;;;;;;;1.80;77.23;91624.88;2048014;70;20158;-82
2024/01/19 01:08:56;;;;;;;0.88;0.80;;;;;;;2.60;77.24;91647.34;2047954;70;20143;-82
2024/01/19 01:11:23;;;;;;;0.77;0.77;;;;;;;2.70;76.91;91636.94;2047376;70;20262;-81
2024/01/19 01:13:50;;;;;;;1.30;0.90;;;;;;;2.87;75.46;91656.25;2047797;70;20597;-81
2024/01/19 01:16:15;;;;;;;1.00;0.90;;;;;;;2.76;75.35;91654.81;2044519;70;20333;-81
2024/01/19 01:18:41;;;;;;;0.75;0.75;;;;;;;2.73;74.61;91655.97;2047156;70;20213;-81
2024/01/19 01:21:07;;;;;;;1.25;0.90;;;;;;;2.86;74.50;91643.69;2047486;70;20598;-79
2024/01/19 01:23:33;;;;;;;0.77;0.77;;;;;;;2.75;73.33;91650.56;2047276;70;20144;-80
2024/01/19 01:25:59;;;;;;;0.95;0.90;;;;;;;2.51;74.79;91660.63;2047631;70;20534;-81
2024/01/19 01:28:24;;;;;;;1.38;1.00;;;;;;;2.41;73.71;91662.69;2047994;70;20615;-80
2024/01/19 01:30:51;;;;;;;1.33;1.00;;;;;;;2.43;74.01;91668.41;2047502;70;20146;-82
2024/01/19 01:33:16;;;;;;;0.90;0.90;;;;;;;2.23;74.36;91689.84;2047763;70;20701;-80
2024/01/19 01:35:42;;;;;;;1.10;1.00;;;;;;;2.50;74.42;91684.19;2047780;70;20167;-81
2024/01/19 01:38:08;;;;;;;3.63;1.48;;;;;;;2.21;74.15;91686.19;2047920;70;20148;-81
2024/01/19 01:40:33;;;;;;;1.23;1.13;;;;;;;2.24;75.19;91707.97;2047933;70;20155;-80
2024/01/19 01:43:01;;;;;;;1.48;1.38;;;;;;;1.99;75.99;91701.91;2046618;70;20165;-80
2024/01/19 01:45:27;;;;;;;1.80;1.58;;;;;;;2.13;76.32;91724.47;2047145;70;20210;-82
2024/01/19 01:47:53;;;;;;;1.92;1.67;;;;;;;2.46;75.85;91727.59;2047535;70;20190;-81
2024/01/19 01:50:20;;;;;;;1.48;1.38;;;;;;;1.89;77.14;91737.97;2048064;70;20154;-80
2024/01/19 01:52:46;;;;;;;1.60;1.30;;;;;;;2.01;77.06;91747.19;2047932;70;20143;-81
2024/01/19 01:55:13;;;;;;;1.58;1.45;;;;;;;2.19;75.73;91744.34;2047859;70;20630;-81
2024/01/19 01:57:41;;;;;;;1.60;1.48;;;;;;;1.90;76.43;91749.78;2047837;70;20173;-82
2024/01/19 02:00:08;;;;;;;2.47;1.50;;;;;;;1.60;79.70;91737.81;2047932;70;20150;-83
2024/01/19 02:02:36;;;;;;;1.70;1.60;;;;;;;2.05;79.08;91752.34;2047957;70;20161;-83
2024/01/19 02:05:05;;;;;;;1.77;1.60;;;;;;;2.39;77.31;91759.75;2047919;70;20229;-81
2024/01/19 02:07:31;;;;;;;2.30;1.80;;;;;;;2.31;76.88;91736.19;2047061;70;20189;-82
2024/01/19 02:09:58;;;;;;;1.50;1.30;;;;;;;2.43;75.57;91767.66;2047951;70;20507;-81
2024/01/19 02:12:25;;;;;;;1.30;1.15;;;;;;;2.16;75.82;91767.72;2047342;70;20151;-83
2024/01/19 02:14:51;;;;;;;2.05;1.60;;;;;;;2.45;75.30;91767.81;2047882;70;20260;-83
2024/01/19 02:17:16;;;;;;;1.20;1.10;;;;;;;2.53;74.38;91777.50;2047096;70;20264;-81
2024/01/19 02:19:42;;;;;;;1.50;1.10;;;;;;;2.55;73.11;91785.97;2047802;70;20607;-81
2024/01/19 02:22:08;;;;;;;1.63;1.30;;;;;;;1.43;74.28;91783.00;2047189;70;20609;-81
2024/01/19 02:24:35;;;;;;;1.50;1.30;;;;;;;1.85;75.16;91768.19;2046970;70;20134;-81
2024/01/19 02:27:02;;;;;;;1.58;1.42;;;;;;;1.80;75.02;91790.66;2046904;70;20154;-81
2024/01/19 02:29:27;;;;;;;1.50;1.40;;;;;;;1.66;76.04;91799.34;2046838;70;20146;-81
2024/01/19 02:31:53;;;;;;;2.00;1.38;;;;;;;1.19;75.94;91806.75;2047445;70;20151;-80
2024/01/19 02:34:19;;;;;;;1.95;1.50;;;;;;;1.51;76.35;91816.16;2047752;70;20233;-80
2024/01/19 02:36:46;;;;;;;1.75;1.50;;;;;;;1.11;77.48;91819.97;2047671;70;20534;-80
2024/01/19 02:39:12;;;;;;;2.13;1.60;;;;;;;1.37;76.98;91824.09;2047996;70;20147;-80
2024/01/19 02:41:38;;;;;;;2.70;1.60;;;;;;;1.17;77.70;91820.44;2047713;70;20161;-81
2024/01/19 02:44:04;;;;;;;2.83;1.60;;;;;;;0.74;78.12;91836.41;2047151;70;20158;-80
2024/01/19 02:46:29;;;;;;;2.15;1.85;;;;;;;0.83;78.79;91840.56;2047497;70;20138;-79
2024/01/19 02:48:55;;;;;;;2.08;1.80;;;;;;;1.06;77.60;91840.34;2047781;70;20169;-82
2024/01/19 02:51:21;;;;;;;1.50;1.40;;;;;;;1.08;77.00;91845.31;2047319;70;20145;-81
2024/01/19 02:53:47;;;;;;;1.90;1.60;;;;;;;1.58;75.91;91853.44;2047191;70;20558;-81
2024/01/19 02:56:13;;;;;;;1.75;1.58;;;;;;;1.74;75.37;91855.47;2047254;70;20154;-80
2024/01/19 02:58:38;;;;;;;2.28;1.52;;;;;;;1.90;74.74;91863.59;2047376;70;20149;-81
2024/01/19 03:01:08;;;;;;;2.53;1.50;;;;;;;1.62;75.11;91867.66;2047803;70;20189;-81
2024/01/19 03:03:33;;;;;;;2.05;1.58;;;;;;;1.81;74.34;91864.25;2044214;70;20143;-81
2024/01/19 03:05:59;;;;;;;1.70;1.40;;;;;;;1.52;74.28;91862.03;2047090;70;20165;-79
2024/01/19 03:08:25;;;;;;;1.70;1.60;;;;;;;0.91;75.53;91870.97;2047440;70;20182;-81
2024/01/19 03:10:50;;;;;;;1.77;1.52;;;;;;;1.62;75.19;91884.28;2047733;70;20158;-81
2024/01/19 03:13:16;;;;;;;1.60;1.48;;;;;;;1.82;74.15;91887.94;2047555;70;20228;-83
2024/01/19 03:15:42;;;;;;;2.22;1.58;;;;;;;1.42;74.58;91889.69;2047353;70;20161;-81
2024/01/19 03:18:07;;;;;;;1.58;1.48;;;;;;;1.65;72.83;91888.69;2047413;70;20149;-80
2024/01/19 03:20:33;;;;;;;1.67;1.45;;;;;;;1.54;73.28;91895.47;2047437;70;20182;-79
2024/01/19 03:22:59;;;;;;;1.70;1.38;;;;;;;1.77;72.63;91906.31;2047274;70;20154;-80
2024/01/19 03:25:24;;;;;;;1.20;1.10;;;;;;;1.62;70.99;91907.22;2047274;70;20135;-80
2024/01/19 03:27:51;;;;;;;1.50;1.20;;;;;;;1.59;71.55;91907.63;2045092;70;20142;-79
2024/01/19 03:30:18;;;;;;;1.90;1.60;;;;;;;1.11;72.83;91907.94;2044420;70;20258;-81
2024/01/19 03:32:43;;;;;;;1.60;1.50;;;;;;;1.10;72.93;91918.31;2044464;70;20163;-80
2024/01/19 03:35:09;;;;;;;2.17;1.90;;;;;;;0.45;75.85;91910.84;2044691;70;20183;-82
2024/01/19 03:37:35;;;;;;;2.30;1.80;;;;;;;0.51;75.21;91916.19;2045022;70;20202;-80
2024/01/19 03:40:00;;;;;;;3.05;1.80;;;;;;;1.02;74.76;91917.63;2044553;70;20143;-81
2024/01/19 03:42:28;;;;;;;2.78;1.67;;;;;;;1.43;73.36;91915.38;2044385;70;20663;-80
2024/01/19 03:44:55;;;;;;;2.08;1.63;;;;;;;1.62;72.55;91925.91;2047115;70;20143;-81
2024/01/19 03:47:21;;;;;;;1.58;1.48;;;;;;;1.55;71.20;91924.66;2048166;70;20163;-81
2024/01/19 03:49:46;;;;;;;2.33;1.70;;;;;;;1.77;71.08;91922.94;2048228;70;20181;-80
2024/01/19 03:52:12;;;;;;;1.77;1.55;;;;;;;1.60;71.24;91917.41;2048248;70;20511;-82
2024/01/19 03:54:38;;;;;;;1.55;1.45;;;;;;;1.51;70.94;91914.00;2048297;70;20226;-82
2024/01/19 03:57:06;;;;;;;1.90;1.48;;;;;;;1.02;72.50;91937.75;2048048;70;20154;-81
2024/01/19 03:59:32;;;;;;;3.50;1.70;;;;;;;1.42;72.31;91936.09;2048058;70;20139;-82
2024/01/19 04:01:58;;;;;;;2.08;1.70;;;;;;;1.65;71.38;91931.06;2048047;70;20657;-82
2024/01/19 04:04:28;;;;;;;2.00;1.67;;;;;;;1.65;71.52;91933.06;2047948;70;20169;-81
2024/01/19 04:06:55;;;;;;;1.88;1.42;;;;;;;1.67;71.12;91931.19;2047976;70;20238;-81
2024/01/19 04:09:21;;;;;;;2.83;1.50;;;;;;;0.71;72.72;91933.75;2047874;70;20142;-80
2024/01/19 04:11:48;;;;;;;2.55;2.00;;;;;;;0.50;75.34;91945.94;2047902;70;20147;-79
2024/01/19 04:14:15;;;;;;;3.05;2.10;;;;;;;0.39;76.17;91949.13;2048011;70;20150;-81
2024/01/19 04:16:41;;;;;;;3.42;2.38;;;;;;;0.31;77.01;91953.97;2047700;70;20626;-81
2024/01/19 04:19:07;;;;;;;2.80;2.08;;;;;;;0.66;76.63;91954.13;2047395;70;20174;-81
2024/01/19 04:21:33;;;;;;;2.97;2.33;;;;;;;1.07;75.11;91955.47;2047836;70;20154;-80
2024/01/19 04:23:59;;;;;;;2.65;2.17;;;;;;;1.06;73.57;91956.78;2047841;70;20153;-80
2024/01/19 04:26:26;;;;;;;3.13;2.25;;;;;;;1.15;74.07;91953.38;2047105;70;20491;-78
2024/01/19 04:28:51;;;;;;;3.10;2.17;;;;;;;0.80;73.97;91941.44;2047244;70;20154;-79
2024/01/19 04:31:17;;;;;;;3.05;2.42;;;;;;;0.25;76.27;91948.66;2047801;70;20147;-81
2024/01/19 04:33:43;;;;;;;2.55;2.15;;;;;;;0.74;76.22;91979.75;2048221;70;20172;-81
2024/01/19 04:36:09;;;;;;;2.65;1.90;;;;;;;0.60;74.37;91986.84;2045135;70;20596;-80
2024/01/19 04:38:35;;;;;;;3.00;2.15;;;;;;;0.44;76.36;91983.44;2043883;70;20196;-80
2024/01/19 04:41:00;;;;;;;6.35;2.28;;;;;;;0.68;75.36;91977.19;2044288;70;20139;-81
2024/01/19 04:43:26;;;;;;;3.15;2.30;;;;;;;0.64;74.62;91985.16;2043913;70;20599;-81
2024/01/19 04:45:52;;;;;;;4.20;2.42;;;;;;;0.82;74.32;91977.63;2044542;70;20691;-81
2024/01/19 04:48:18;;;;;;;2.95;2.17;;;;;;;0.74;73.85;91991.56;2044431;70;20224;-80
2024/01/19 04:50:44;;;;;;;2.67;2.10;;;;;;;0.75;74.81;91990.25;2044384;70;20393;-80
2024/01/19 04:53:09;;;;;;;3.13;2.30;;;;;;;0.52;73.07;91988.94;2041105;70;20222;-81
2024/01/19 04:55:35;;;;;;;2.70;2.00;;;;;;;0.60;73.79;91984.81;2044144;70;20611;-81
2024/01/19 04:58:01;;;;;;;2.97;2.20;;;;;;;0.93;72.72;91982.00;2044412;70;20158;-81
2024/01/19 05:00:27;;;;;;;2.65;2.03;;;;;;;1.20;72.16;91985.66;2044401;70;20150;-82
2024/01/19 05:02:52;;;;;;;2.38;1.90;;;;;;;1.19;71.55;91983.44;2044488;70;20604;-81
2024/01/19 05:05:18;;;;;;;2.50;2.00;;;;;;;1.20;71.16;91985.66;2044814;70;20687;-81
2024/01/19 05:07:44;;;;;;;3.55;2.28;;;;;;;0.47;73.23;91991.34;2044975;70;20135;-81
2024/01/19 05:10:09;;;;;;;2.47;2.10;;;;;;;0.72;72.45;91987.88;2044774;70;20592;-82
2024/01/19 05:12:35;;;;;;;2.33;1.95;;;;;;;0.48;72.51;91994.84;2044775;70;20198;-81
2024/01/19 05:15:01;;;;;;;4.25;2.45;;;;;;;0.29;73.70;91997.38;2044886;70;20223;-81
2024/01/19 05:17:26;;;;;;;4.88;3.10;;;;;;;0.70;72.97;92009.88;2044832;70;20518;-82
2024/01/19 05:19:52;;;;;;;3.63;2.40;;;;;;;0.72;72.43;92007.25;2044864;70;20157;-81
2024/01/19 05:22:18;;;;;;;3.80;2.63;;;;;;;0.58;72.02;92009.56;2044737;70;20163;-81
2024/01/19 05:24:44;;;;;;;5.18;2.95;;;;;;;0.90;71.57;92014.34;2044767;70;20158;-81
2024/01/19 05:27:10;;;;;;;5.55;3.10;;;;;;;1.04;71.11;92022.38;2044646;70;20225;-81
2024/01/19 05:29:35;;;;;;;4.10;2.90;;;;;;;1.14;71.03;92028.75;2044678;70;20627;-82
2024/01/19 05:32:02;;;;;;;3.67;2.40;;;;;;;1.04;70.64;92027.91;2044908;70;20165;-81
2024/01/19 05:34:29;;;;;;;3.63;2.40;;;;;;;1.04;71.11;92044.56;2044723;70;20159;-81
2024/01/19 05:36:55;;;;;;;4.28;2.70;;;;;;;0.40;71.60;92041.22;2044641;70;20143;-81
2024/01/19 05:39:21;;;;;;;4.10;2.70;;;;;;;0.72;71.75;92046.78;2044746;70;20154;-81
2024/01/19 05:41:46;;;;;;;3.72;2.28;;;;;;;0.74;71.23;92046.97;2044679;70;20688;-82
2024/01/19 05:44:12;;;;;;;3.25;2.33;;;;;;;0.63;71.55;92049.41;2044687;70;20154;-82
2024/01/19 05:46:38;;;;;;;3.22;2.45;;;;;;;1.05;70.79;92051.56;2044654;70;20166;-82
2024/01/19 05:49:04;;;;;;;4.20;2.15;;;;;;;1.01;70.66;92043.66;2044210;70;20155;-82
2024/01/19 05:51:30;;;;;;;3.63;2.42;;;;;;;1.03;70.07;92043.81;2044274;70;20150;-82
2024/01/19 05:53:56;;;;;;;3.03;2.35;;;;;;;1.16;69.87;92065.72;2044653;70;20627;-82
2024/01/19 05:56:21;;;;;;;2.85;2.15;;;;;;;1.23;69.58;92061.41;2044539;70;20143;-81
2024/01/19 05:58:47;;;;;;;3.20;2.13;;;;;;;1.24;69.58;92057.38;2044600;70;20606;-81
2024/01/19 06:01:13;;;;;;;3.15;2.30;;;;;;;1.14;69.73;92070.34;2044759;70;20150;-82
2024/01/19 06:03:39;;;;;;;3.38;2.50;;;;;;;1.08;69.31;92080.94;2044669;70;20134;-82
2024/01/19 06:06:05;;;;;;;3.05;2.25;;;;;;;0.90;69.79;92085.66;2044622;70;20139;-82
2024/01/19 06:08:32;;;;;;;3.10;2.05;;;;;;;1.02;69.11;92092.97;2044654;70;20147;-82
2024/01/19 06:10:57;;;;;;;3.15;2.40;;;;;;;0.83;69.22;92092.00;2044744;70;20127;-82
2024/01/19 06:13:23;;;;;;;4.82;2.60;;;;;;;0.85;69.89;92097.69;2044643;70;20151;-82
2024/01/19 06:15:49;;;;;;;3.08;2.40;;;;;;;0.96;68.66;92103.56;2044322;70;20142;-82
2024/01/19 06:18:15;;;;;;;3.05;2.53;;;;;;;0.84;68.75;92113.59;2044117;70;20170;-82
2024/01/19 06:20:41;;;;;;;2.97;2.28;;;;;;;0.60;69.32;92122.59;2044725;70;20146;-82
2024/01/19 06:23:10;;;;;;;3.60;2.20;;;;;;;0.93;68.71;92126.13;2044592;70;20238;-82
2024/01/19 06:25:37;;;;;;;3.88;2.60;;;;;;;1.09;68.03;92135.06;2044098;70;20153;-83
2024/01/19 06:28:03;;;;;;;3.17;2.30;;;;;;;1.08;68.72;92139.16;2044021;70;20218;-82
2024/01/19 06:30:29;;;;;;;3.28;2.33;;;;;;;1.02;67.10;92144.91;2044132;70;20144;-82
2024/01/19 06:32:55;;;;;;;3.28;2.45;;;;;;;1.06;67.59;92148.03;2044760;70;20454;-83
2024/01/19 06:35:22;;;;;;;3.72;2.40;;;;;;;1.05;67.42;92148.59;2044673;70;20244;-82
2024/01/19 06:37:47;;;;;;;4.22;2.90;;;;;;;0.40;68.36;92166.56;2044535;70;20500;-83
2024/01/19 06:40:14;;;;;;;3.35;2.55;;;;;;;0.73;67.35;92163.88;2044743;70;20484;-82
2024/01/19 06:42:44;;;;;;;6.30;3.25;;;;;;;0.54;68.44;92166.34;2046032;70;20169;-83
2024/01/19 06:45:10;;;;;;;3.80;2.97;;;;;;;0.70;68.90;92171.28;2051164;70;20173;-82
2024/01/19 06:47:36;;;;;;;3.65;2.83;;;;;;;0.87;67.58;92172.69;2051108;70;20206;-81
2024/01/19 06:50:02;;;;;;;3.83;2.55;;;;;;;0.90;68.10;92171.56;2050573;70;20173;-82
2024/01/19 06:52:27;;;;;;;5.47;3.10;;;;;;;0.80;68.26;92179.00;2051090;70;20154;-81
2024/01/19 06:54:53;;;;;;;4.30;2.70;;;;;;;1.01;67.58;92183.00;2051175;70;20166;-81
2024/01/19 06:57:18;;;;;;;4.30;2.85;;;;;;;0.91;67.29;92178.59;2051005;70;20162;-82
2024/01/19 06:59:44;;;;;;;3.38;2.63;;;;;;;0.70;68.22;92187.91;2051129;70;20262;-81
2024/01/19 07:02:12;;;;;;;6.80;3.38;;;;;;;0.57;69.13;92201.97;2050861;70;20597;-81
2024/01/19 07:04:38;;;;;;;4.50;3.13;;;;;;;0.70;68.35;92193.44;2051671;69;20229;-81
2024/01/19 07:07:03;;;;;;;4.10;3.03;;;;;;;0.77;67.90;92197.47;2051171;70;20144;-80
2024/01/19 07:09:29;;;;;;;4.80;3.30;;;;;;;0.91;67.63;92207.03;2051156;70;20134;-80
2024/01/19 07:11:55;;;;;;;4.15;3.10;;;;;;;0.85;67.52;92200.97;2051667;70;20610;-83
2024/01/19 07:14:26;;;;;;;4.13;3.10;;;;;;;0.93;67.13;92212.75;2051811;70;20150;-85
2024/01/19 07:16:52;;;;;;;4.95;3.47;;;;;;;0.74;68.23;92220.78;2051780;70;20180;-81
2024/01/19 07:19:18;;;;;;;5.10;3.33;;;;;;;0.97;67.38;92226.25;2051741;70;20145;-80
2024/01/19 07:21:44;;;;;;;5.50;3.42;;;;;;;1.18;66.70;92228.72;2051845;69;20154;-82
2024/01/19 07:24:11;;;;;;;4.38;3.28;;;;;;;1.11;66.65;92235.81;2051224;70;20486;-79
2024/01/19 07:26:38;;;;;;;6.35;3.40;;;;;;;1.15;66.84;92252.06;2051748;70;20595;-79
2024/01/19 07:29:07;;;;;;;4.90;3.25;;;;;;;0.74;67.86;92254.03;2051974;69;20162;-80
2024/01/19 07:31:36;;;;;;;6.65;3.55;;;;;;;0.60;67.04;92256.28;2051711;70;20622;-84
2024/01/19 07:34:03;;;;;;;6.00;3.50;;;;;;;0.95;67.49;92256.53;2051665;70;20166;-80
2024/01/19 07:36:29;;;;;;;5.43;3.28;;;;;;;1.15;66.87;92269.44;2051697;69;20146;-85
2024/01/19 07:38:54;;;;;;;4.93;3.33;;;;;;;1.06;66.14;92264.47;2051056;70;20184;-80
2024/01/19 07:41:20;;;;;;;5.82;3.88;;;;;;;0.69;67.57;92266.78;2050851;70;20147;-80
2024/01/19 07:43:46;;;;;;;5.28;3.60;;;;;;;1.08;66.87;92275.00;2051405;70;20205;-80
2024/01/19 07:46:14;;;;;;;4.38;3.08;;;;;;;1.24;67.01;92273.66;2051583;70;20138;-79
2024/01/19 07:48:39;;;;;;;4.63;3.20;;;;;;;1.08;66.88;92272.94;2051672;70;20529;-79
2024/01/19 07:51:05;;;;;;;6.18;4.25;;;;;;;0.92;67.13;92274.31;2051760;70;20147;-79
2024/01/19 07:53:31;;;;;;;6.90;4.55;;;;;;;0.48;66.60;92277.34;2051603;70;20142;-79
2024/01/19 07:55:57;;;;;;;6.72;4.20;;;;;;;0.94;66.99;92277.25;2051467;70;20582;-81
2024/01/19 07:58:23;;;;;;;8.15;4.18;;;;;;;1.11;66.28;92288.47;2051650;69;20170;-80
2024/01/19 08:00:49;;;;;;;9.05;4.40;;;;;;;1.24;65.95;92298.59;2051638;70;20124;-80
2024/01/19 08:03:16;;;;;;;6.25;3.60;;;;;;;1.26;66.57;92302.28;2048317;70;20150;-81
2024/01/19 08:05:41;;;;;;;7.15;4.18;;;;;;;1.04;65.71;92303.09;2051570;69;20286;-80
2024/01/19 08:08:07;;;;;;;7.20;4.03;;;;;;;1.32;65.34;92320.75;2051670;69;20625;-78
2024/01/19 08:10:35;;;;;;;5.63;3.28;;;;;;;1.02;65.60;92314.75;2051713;70;20146;-81
2024/01/19 08:13:01;;;;;;;4.43;3.13;;;;;;;0.85;65.40;92317.38;2051423;69;20178;-80
2024/01/19 08:15:28;;;;;;;6.38;3.30;;;;;;;0.79;65.36;92318.84;2051619;70;20150;-82
2024/01/19 08:17:54;;;;;;;5.63;3.33;;;;;;;1.07;64.56;92338.00;2051582;70;20177;-79
2024/01/19 08:20:20;;;;;;;5.90;3.30;;;;;;;1.01;64.49;92310.50;2051758;69;20253;-82
2024/01/19 08:22:45;;;;;;;5.55;3.45;;;;;;;0.93;64.04;92348.56;2051678;70;20340;-81
2024/01/19 08:25:11;;;;;;;8.55;4.25;;;;;;;0.44;65.04;92354.53;2051486;70;20542;-79
2024/01/19 08:27:41;;;;;;;6.78;4.43;;;;;;;0.67;65.04;92360.78;2051550;69;20518;-79
2024/01/19 08:30:07;;;;;;;9.32;4.30;;;;;;;0.67;63.98;92368.38;2051079;70;20147;-79
2024/01/19 08:32:34;;;;;;;7.32;4.70;;;;;;;0.92;64.32;92366.50;2051563;70;20158;-79
2024/01/19 08:35:08;;;;;;;10.13;5.10;;;;;;;1.21;64.20;92374.56;2051767;70;20132;-83
2024/01/19 08:37:38;;;;;;;8.60;4.63;;;;;;;1.48;63.98;92372.84;2051589;70;20356;-81
2024/01/19 08:40:11;;;;;;;9.35;4.95;;;;;;;1.29;62.99;92385.66;2051603;69;20146;-82
2024/01/19 08:42:38;;;;;;;8.73;4.72;;;;;;;0.97;64.18;92378.69;2050904;70;20213;-79
2024/01/19 08:45:04;;;;;;;10.60;4.40;;;;;;;1.21;65.12;92394.72;2051255;70;20134;-82
2024/01/19 08:47:31;;;;;;;7.30;4.38;;;;;;;1.04;63.67;92402.16;2050995;70;20150;-82
2024/01/19 08:49:57;;;;;;;8.88;4.65;;;;;;;1.42;65.35;92402.06;2051633;70;20519;-79
2024/01/19 08:52:22;;;;;;;8.82;4.20;;;;;;;1.40;63.73;92413.00;2050941;70;20191;-78
2024/01/19 08:54:48;;;;;;;10.82;4.82;;;;;;;1.13;63.40;92423.75;2051581;70;20519;-79
2024/01/19 08:57:14;;;;;;;8.75;4.65;;;;;;;1.18;63.75;92423.56;2051446;70;20475;-79
2024/01/19 08:59:40;;;;;;;7.55;4.00;;;;;;;1.27;63.12;92427.81;2050997;70;20137;-81
2024/01/19 09:02:06;;;;;;;5.32;3.83;;;;;;;0.80;62.60;92437.44;2051544;69;20178;-81
2024/01/19 09:04:35;;;;;;;7.43;4.38;;;;;;;1.20;64.37;92423.03;2051416;70;20583;-79
2024/01/19 09:07:01;;;;;;;6.43;3.70;;;;;;;1.50;62.93;92433.31;2050934;70;20151;-81
2024/01/19 09:09:26;;;;;;;8.90;4.28;;;;;;;1.22;63.17;92431.50;2051678;70;20479;-78
2024/01/19 09:11:53;;;;;;;6.60;3.80;;;;;;;0.64;64.23;92449.81;2050836;70;20150;-81
2024/01/19 09:14:20;;;;;;;6.63;4.32;;;;;;;0.71;65.54;92449.09;2051485;69;20208;-82
2024/01/19 09:16:45;;;;;;;7.63;4.65;;;;;;;0.89;65.74;92453.53;2052808;69;20495;-80
2024/01/19 09:19:12;;;;;;;7.15;4.47;;;;;;;0.55;65.67;92461.44;2055844;69;20666;-83
2024/01/19 09:21:39;;;;;;;6.28;4.13;;;;;;;0.62;65.72;92475.31;2052229;70;20169;-80
2024/01/19 09:24:08;;;;;;;7.95;4.45;;;;;;;1.00;65.10;92475.31;2051449;70;20151;-82
2024/01/19 09:26:34;;;;;;;8.30;4.40;;;;;;;0.97;64.91;92464.63;2051357;70;20238;-82
2024/01/19 09:28:59;;;;;;;6.70;4.35;;;;;;;1.01;64.62;92495.50;2051330;70;20146;-83
2024/01/19 09:31:25;;;;;;;7.03;4.20;;;;;;;1.16;62.79;92497.53;2051177;70;20135;-84
2024/01/19 09:33:51;;;;;;;6.43;4.43;;;;;;;1.58;63.18;92497.84;2051655;70;20170;-81
2024/01/19 09:36:16;;;;;;;6.93;3.83;;;;;;;1.51;61.35;92504.91;2051521;70;20146;-81
2024/01/19 09:38:42;;;;;;;7.15;4.72;;;;;;;2.06;61.46;92511.03;2051356;69;20146;-82
2024/01/19 09:41:26;;;;;;;8.02;4.07;;;;;;;1.71;61.56;92514.28;2050768;70;20146;-82
2024/01/19 09:43:57;;;;;;;6.63;3.80;;;;;;;1.74;60.67;92531.84;2051224;70;20233;-83
2024/01/19 09:46:30;;;;;;;6.60;4.13;;;;;;;1.66;61.26;92525.59;2051598;70;20135;-82
2024/01/19 09:49:08;;;;;;;9.20;4.90;;;;;;;1.78;62.79;92543.31;2051342;70;20161;-80
2024/01/19 09:51:48;;;;;;;9.45;5.25;;;;;;;1.36;64.43;92552.03;2051671;69;20220;-82
2024/01/19 09:54:24;;;;;;;7.97;4.80;;;;;;;0.94;65.54;92548.88;2051439;70;20227;-82
2024/01/19 09:56:50;;;;;;;7.43;4.80;;;;;;;1.57;64.78;92571.28;2051386;70;20137;-82
2024/01/19 09:59:16;;;;;;;6.93;4.53;;;;;;;1.29;64.40;92546.50;2051377;70;20165;-82
2024/01/19 10:01:42;;;;;;;7.03;4.53;;;;;;;0.92;65.43;92562.56;2051393;70;20246;-84
2024/01/19 10:04:13;;;;;;;7.20;4.38;;;;;;;1.76;64.04;92566.09;2051414;70;20139;-84
2024/01/19 10:06:39;;;;;;;6.00;4.22;;;;;;;2.47;62.43;92560.53;2051443;70;20239;-82
2024/01/19 10:09:05;;;;;;;5.57;3.97;;;;;;;2.40;61.89;92572.41;2051537;70;20146;-82
2024/01/19 10:11:31;;;;;;;5.82;3.50;;;;;;;2.43;59.74;92564.97;2051385;70;20157;-82
2024/01/19 10:13:56;;;;;;;5.07;3.40;;;;;;;2.22;57.90;92566.00;2050898;70;20154;-82
2024/01/19 10:16:22;;;;;;;4.40;3.00;;;;;;;3.13;58.95;92574.47;2051502;70;20603;-82
2024/01/19 10:18:49;;;;;;;6.38;3.40;;;;;;;3.50;57.81;92556.78;2051273;70;20130;-83
2024/01/19 10:21:29;;;;;;;6.13;3.53;;;;;;;3.94;57.14;92567.38;2051471;70;20155;-82
2024/01/19 10:24:19;;;;;;;5.75;3.80;;;;;;;4.34;56.68;92569.91;2051574;70;20221;-82
2024/01/19 10:26:55;;;;;;;6.25;3.22;;;;;;;4.89;54.50;92558.88;2050832;70;20174;-82
2024/01/19 10:29:22;;;;;;;6.93;2.97;;;;;;;5.38;53.93;92562.69;2051439;70;20227;-82
2024/01/19 10:31:50;;;;;;;3.40;2.60;;;;;;;4.85;49.55;92564.88;2051380;70;20127;-82
2024/01/19 10:34:19;;;;;;;4.47;2.80;;;;;;;4.50;49.35;92572.56;2051413;70;20162;-82
2024/01/19 10:36:46;;;;;;;4.82;2.40;;;;;;;6.42;50.60;92567.72;2052195;70;20559;-81
2024/01/19 10:39:15;;;;;;;5.18;3.05;;;;;;;7.07;49.22;92581.53;2052372;70;20134;-82
2024/01/19 10:41:41;;;;;;;5.57;2.47;;;;;;;6.14;48.04;92572.69;2051847;70;20153;-82
2024/01/19 10:44:11;;;;;;;3.95;2.38;;;;;;;5.44;50.09;92575.03;2052172;69;20151;-82
2024/01/19 10:46:37;;;;;;;6.53;2.58;;;;;;;5.60;49.43;92550.44;2051827;70;20150;-82
2024/01/19 10:49:04;;;;;;;7.22;2.92;;;;;;;7.54;49.46;92567.28;2052185;69;20602;-82
2024/01/19 10:51:32;;;;;;;3.85;2.65;;;;;;;9.37;45.66;92573.03;2051956;70;20158;-82
2024/01/19 10:54:05;;;;;;;4.15;2.78;;;;;;;9.51;44.15;92576.75;2052132;69;20193;-82
2024/01/19 10:56:30;;;;;;;6.67;3.80;;;;;;;9.12;46.00;92574.31;2051491;70;20590;-82
2024/01/19 10:59:09;;;;;;;5.35;3.40;;;;;;;9.02;44.51;92572.91;2051502;70;20185;-82
2024/01/19 11:01:36;;;;;;;5.95;2.92;;;;;;;9.33;42.96;92576.31;2052265;70;20135;-82
2024/01/19 11:04:02;;;;;;;6.35;2.90;;;;;;;8.29;43.41;92578.00;2051800;70;20199;-82
2024/01/19 11:06:28;;;;;;;4.15;2.55;;;;;;;12.09;42.00;92578.22;2055761;70;20185;-81
2024/01/19 11:08:55;;;;;;;3.67;2.50;;;;;;;11.41;39.30;92582.28;2054454;70;20182;-82
2024/01/19 11:11:26;;;;;;;2.65;1.70;;;;;;;8.97;38.31;92590.84;2052504;70;20139;-81
2024/01/19 11:13:59;;;;;;;9.02;1.60;;;;;;;10.23;38.00;92579.00;2052433;69;20252;-81
2024/01/19 11:16:27;;;;;;;3.03;1.30;;;;;;;10.19;37.20;92585.13;2051916;70;20162;-80
2024/01/19 11:18:54;;;;;;;2.47;1.58;;;;;;;11.08;36.67;92594.53;2051667;69;20168;-80
2024/01/19 11:21:22;;;;;;;3.10;1.20;;;;;;;11.90;34.76;92608.28;2051685;70;20156;-79
2024/01/19 11:23:48;;;;;;;2.28;1.80;;;;;;;14.43;33.13;92614.41;2051677;69;20526;-82
2024/01/19 11:26:24;;;;;;;2.08;1.40;;;;;;;14.34;33.78;92615.41;2051619;70;20142;-80
2024/01/19 11:29:17;;;;;;;5.57;3.03;;;;;;;12.91;32.30;92620.59;2051735;69;20177;-81
2024/01/19 11:31:44;;;;;;;3.25;2.00;;;;;;;13.71;34.04;92605.47;2051795;70;20154;-81
2024/01/19 11:34:40;;;;;;;2.60;1.55;;;;;;;14.55;30.64;92628.44;2051098;70;20174;-83
2024/01/19 11:37:06;;;;;;;1.65;1.20;;;;;;;12.84;33.26;92621.66;2051596;70;20623;-81
2024/01/19 11:39:41;;;;;;;1.42;1.30;;;;;;;16.46;30.17;92627.84;2051661;70;20624;-80